Ain Aicha, Morocco

7:06 AM WET en Enero 19, 2018 (GMT +0000)
Fes-Sais | | Change Station

Alt 1900 ft 33.93 °N, 4.98 °W | Updated 6 minutes ago

Light Rain
Lluvia débil
46 ° F
Sensación térmica 44 ° F
N
6
Viento Variable Viento desde SO

Hoy
Alta -- | Baja -- ° F
--% Posibilidad de precipitaciones
Ayer
Alta -- | Baja -- ° F
Precip. -- pul
Presión 30.12 pul
Visibilidad 6.2 Millas
Nubes Muy nublado 3000 ft
Muy nublado 10000 ft
Vientos helados 44 ° F
Punto de rocío 46 ° F
Humedad 100%
Precipitaciones 0.00 pul
Espesor de la nieve No disponible.
7:23 AM 5:35 PM
Creciente, 4% visible
METAR GMFF 190700Z 22005KT 9999 -RA BKN030 BKN100 08/08 Q1020 NOSIG
Presión 30.12 pul
Visibilidad 6.2 Millas
Nubes Muy nublado 3000 ft
Muy nublado 10000 ft
Vientos helados 44 ° F
Punto de rocío 46 ° F
Humedad 100%
Precipitaciones 0.00 pul
Espesor de la nieve No disponible.
7:23 AM 5:35 PM
Creciente, 4% visible
METAR GMFF 190700Z 22005KT 9999 -RA BKN030 BKN100 08/08 Q1020 NOSIG

Get Severe Weather Alerts

Thanks for signing up!

Be on the lookout for a verification email in your inbox.

You'll start receiving the daily forecast at 6 AM.

×

10-Day Weather Forecast

No radar image for this location.
×

Almanac

Astronomía

Jan. 19, 2018 Salida Puesta
Hora real
Crepúsculo civil
Crepúsculo náutico
Crepúsculo astronómico
Luna
Horas de luz
Horas de luz
Tomorrow will be .
, % of the Moon is Illuminated

Extremos de hoy

Máximos del país Bajas del país

Community

WunderPhotos

Category 6

Welcome to Category 6. This is the collective home for Weather Underground's featured writeups by Dr. Jeff Masters (right), Bob Henson (left), Chris Burt, and other regular contributors.

Nearby

Calidad del aire

  Calidad del aire Índice AQ Contaminante
Not available.

Grosos de nieve

Estación Profundido Altura

Actividad de terremotos

Ciudad Distance Mag. Tiempo y dato
Magnitud mínima muestra es 2,5.

Temperaturas de aguas costeras

Lugar Temperatura

Stations

Estaciones meteorológicas cercanas

Ubicación de la estación Temp. Vientos helados Punto de rocío Humedad Viento Precip. Alt Actualizado Tipo